createdAt,value
2016-11-10T00:01:07.176Z,0
2016-11-10T00:02:20.807Z,0
2016-11-10T00:03:34.311Z,0
2016-11-10T00:04:47.845Z,0
2016-11-10T00:06:01.544Z,0
2016-11-10T00:07:15.114Z,0
2016-11-10T00:08:28.711Z,0
2016-11-10T00:09:42.317Z,0
2016-11-10T00:10:55.992Z,0
2016-11-10T00:12:09.622Z,0
2016-11-10T00:13:23.219Z,0
2016-11-10T00:14:36.810Z,0
2016-11-10T00:15:50.186Z,0
2016-11-10T00:18:48.443Z,0
2016-11-10T00:20:01.979Z,0
2016-11-10T00:21:15.906Z,0
2016-11-10T00:22:29.600Z,0
2016-11-10T00:23:43.274Z,0
2016-11-10T00:24:56.930Z,0
2016-11-10T00:26:10.612Z,0
2016-11-10T00:27:24.237Z,0
2016-11-10T00:28:37.896Z,0
2016-11-10T00:29:51.485Z,0
2016-11-10T00:31:05.052Z,0
2016-11-10T00:32:18.657Z,0
2016-11-10T00:33:32.301Z,0
2016-11-10T00:34:46.226Z,0
2016-11-10T00:35:59.559Z,0
2016-11-10T00:37:13.200Z,0
2016-11-10T00:38:26.798Z,0
2016-11-10T00:39:40.396Z,0
2016-11-10T00:40:53.768Z,0
2016-11-10T00:42:07.344Z,0
2016-11-10T00:43:20.411Z,0
2016-11-10T00:44:34.092Z,0
2016-11-10T00:45:47.653Z,0
2016-11-10T00:47:01.307Z,0
2016-11-10T00:48:14.969Z,0
2016-11-10T00:49:28.496Z,0
2016-11-10T00:50:42.041Z,0
2016-11-10T00:51:55.656Z,0
2016-11-10T00:53:09.342Z,0
2016-11-10T00:54:23.006Z,0
2016-11-10T00:55:36.611Z,0
2016-11-10T00:56:49.692Z,0
2016-11-10T00:58:03.276Z,0
2016-11-10T00:59:16.917Z,0
2016-11-10T01:00:30.206Z,0
2016-11-10T01:01:43.797Z,0
2016-11-10T01:02:57.405Z,0
2016-11-10T01:04:11.083Z,0
2016-11-10T01:05:24.851Z,0
2016-11-10T01:06:38.455Z,0
2016-11-10T01:07:52.279Z,0
2016-11-10T01:09:05.810Z,0
2016-11-10T01:10:19.421Z,0
2016-11-10T01:11:33.016Z,0
2016-11-10T01:12:46.686Z,0
2016-11-10T01:14:00.292Z,0
2016-11-10T01:15:14.011Z,0
2016-11-10T01:16:27.597Z,0
2016-11-10T01:17:41.220Z,0
2016-11-10T01:18:54.788Z,0
2016-11-10T01:20:08.439Z,0
2016-11-10T01:21:22.639Z,0
2016-11-10T01:22:36.363Z,0
2016-11-10T01:23:49.712Z,0
2016-11-10T01:25:02.977Z,0
2016-11-10T01:26:16.605Z,0
2016-11-10T01:27:30.213Z,0
2016-11-10T01:28:43.782Z,0
2016-11-10T01:29:56.876Z,0
2016-11-10T01:31:10.461Z,0
2016-11-10T01:32:24.129Z,0
2016-11-10T01:33:37.694Z,0
2016-11-10T01:35:22.473Z,0
2016-11-10T01:36:36.061Z,0
2016-11-10T01:37:49.721Z,0
2016-11-10T01:39:03.400Z,0
2016-11-10T01:40:16.982Z,0
2016-11-10T01:41:30.317Z,0
2016-11-10T01:42:43.937Z,0
2016-11-10T01:43:57.024Z,0
2016-11-10T01:45:10.700Z,0
2016-11-10T01:46:24.365Z,0
2016-11-10T01:47:37.954Z,0
2016-11-10T01:48:51.538Z,0
2016-11-10T01:50:36.316Z,0
2016-11-10T01:51:49.934Z,0
2016-11-10T01:53:03.009Z,0
2016-11-10T01:54:16.215Z,0
2016-11-10T01:55:29.856Z,0
2016-11-10T01:56:43.480Z,0
2016-11-10T01:57:56.774Z,0
2016-11-10T01:59:10.453Z,0
2016-11-10T02:00:24.066Z,0
2016-11-10T02:01:37.703Z,0
2016-11-10T02:02:51.320Z,0
2016-11-10T02:04:04.918Z,0
2016-11-10T02:05:18.518Z,0
2016-11-10T02:06:31.651Z,0
2016-11-10T02:07:45.286Z,0
2016-11-10T02:08:58.890Z,0
2016-11-10T02:10:11.995Z,0
2016-11-10T02:11:25.624Z,0
2016-11-10T02:12:39.224Z,0
2016-11-10T02:13:52.881Z,0
2016-11-10T02:15:06.550Z,0
2016-11-10T02:16:20.160Z,0
2016-11-10T02:17:33.203Z,0
2016-11-10T02:18:46.860Z,0
2016-11-10T02:20:00.469Z,0
2016-11-10T02:21:14.169Z,0
2016-11-10T02:22:27.740Z,0
2016-11-10T02:23:41.037Z,0
2016-11-10T02:24:54.679Z,0
2016-11-10T02:26:08.274Z,0
2016-11-10T02:27:21.551Z,0
2016-11-10T02:28:35.154Z,0
2016-11-10T02:29:48.752Z,0
2016-11-10T02:31:02.339Z,0
2016-11-10T02:32:16.097Z,0
2016-11-10T02:33:29.731Z,0
2016-11-10T02:34:43.427Z,0
2016-11-10T02:35:57.040Z,0
2016-11-10T02:37:10.634Z,0
2016-11-10T02:38:24.058Z,0
2016-11-10T02:39:37.736Z,0
2016-11-10T02:40:50.810Z,0
2016-11-10T02:42:35.603Z,0
2016-11-10T02:43:49.314Z,0
2016-11-10T02:45:02.452Z,0
2016-11-10T02:46:16.168Z,0
2016-11-10T02:47:29.785Z,0
2016-11-10T02:48:43.408Z,0
2016-11-10T02:49:56.969Z,0
2016-11-10T02:51:10.479Z,0
2016-11-10T02:52:24.107Z,0
2016-11-10T02:53:37.692Z,0
2016-11-10T02:54:51.276Z,0
2016-11-10T02:56:04.875Z,0
2016-11-10T02:57:18.489Z,0
2016-11-10T02:58:32.208Z,0
2016-11-10T02:59:45.796Z,0
2016-11-10T03:00:59.359Z,0
2016-11-10T03:02:13.124Z,0
2016-11-10T03:03:26.667Z,0
2016-11-10T03:04:40.393Z,0
2016-11-10T03:05:53.993Z,0
2016-11-10T03:07:07.582Z,0
2016-11-10T03:08:21.292Z,0
2016-11-10T03:09:34.945Z,0
2016-11-10T03:10:48.060Z,0
2016-11-10T03:12:01.112Z,0
2016-11-10T03:13:14.393Z,0
2016-11-10T03:14:28.022Z,0
2016-11-10T03:15:41.606Z,0
2016-11-10T03:16:55.462Z,0
2016-11-10T03:18:09.087Z,0
2016-11-10T03:19:22.478Z,0
2016-11-10T03:20:36.057Z,0
2016-11-10T03:21:49.743Z,0
2016-11-10T03:23:03.381Z,0
2016-11-10T03:24:16.999Z,0
2016-11-10T03:25:30.559Z,0
2016-11-10T03:26:44.276Z,0
2016-11-10T03:27:57.886Z,0
2016-11-10T03:29:11.529Z,0
2016-11-10T03:30:24.861Z,0
2016-11-10T03:31:38.174Z,0
2016-11-10T03:32:51.906Z,0
2016-11-10T03:34:05.576Z,0
2016-11-10T03:35:19.349Z,0
2016-11-10T03:36:32.964Z,0
2016-11-10T03:37:46.665Z,0
2016-11-10T03:39:00.340Z,0
2016-11-10T03:40:13.961Z,0
2016-11-10T03:41:27.611Z,0
2016-11-10T03:42:41.222Z,0
2016-11-10T03:43:54.851Z,0
2016-11-10T03:45:08.454Z,0
2016-11-10T03:46:22.432Z,0
2016-11-10T03:47:36.101Z,0
2016-11-10T03:49:20.767Z,0
2016-11-10T03:50:34.420Z,0
2016-11-10T03:51:48.009Z,0
2016-11-10T03:53:01.566Z,0
2016-11-10T03:54:15.171Z,0
2016-11-10T03:55:28.202Z,0
2016-11-10T03:56:41.825Z,0
2016-11-10T03:57:55.537Z,0
2016-11-10T03:59:08.822Z,0
2016-11-10T04:00:22.566Z,0
2016-11-10T04:01:36.248Z,0
2016-11-10T04:02:49.619Z,0
2016-11-10T04:04:03.193Z,0
2016-11-10T04:05:16.823Z,0
2016-11-10T04:06:30.474Z,0
2016-11-10T04:07:44.040Z,0
2016-11-10T04:08:57.688Z,0
2016-11-10T04:10:11.421Z,0
2016-11-10T04:11:25.059Z,0
2016-11-10T04:12:38.659Z,0
2016-11-10T04:13:52.049Z,0
2016-11-10T04:15:05.629Z,0
2016-11-10T04:16:33.285Z,0
2016-11-10T04:17:46.846Z,0
2016-11-10T04:19:00.449Z,0
2016-11-10T04:20:14.057Z,0
2016-11-10T04:21:27.701Z,0
2016-11-10T04:22:41.329Z,0
2016-11-10T04:23:54.985Z,0
2016-11-10T04:25:08.675Z,0
2016-11-10T04:26:22.483Z,0
2016-11-10T04:27:36.119Z,0
2016-11-10T04:28:49.764Z,0
2016-11-10T04:30:03.370Z,0
2016-11-10T04:31:17.024Z,0
2016-11-10T04:32:30.669Z,0
2016-11-10T04:33:44.262Z,0
2016-11-10T04:34:57.887Z,0
2016-11-10T04:36:11.543Z,0
2016-11-10T04:37:25.149Z,0
2016-11-10T04:38:38.769Z,0
2016-11-10T04:39:52.530Z,0
2016-11-10T04:41:05.846Z,0
2016-11-10T04:42:19.416Z,0
2016-11-10T04:43:33.018Z,0
2016-11-10T04:44:46.578Z,0
2016-11-10T04:46:00.185Z,0
2016-11-10T04:47:13.524Z,0
2016-11-10T04:48:27.124Z,0
2016-11-10T04:49:40.301Z,0
2016-11-10T04:50:53.112Z,0
2016-11-10T04:52:06.128Z,0
2016-11-10T04:53:19.385Z,0
2016-11-10T04:54:33.015Z,0
2016-11-10T04:55:46.251Z,0
2016-11-10T04:56:58.859Z,0
2016-11-10T04:58:11.876Z,0
2016-11-10T04:59:25.072Z,0
2016-11-10T05:00:38.720Z,0
2016-11-10T05:01:52.535Z,0
2016-11-10T05:03:06.204Z,0
2016-11-10T05:04:19.849Z,0
2016-11-10T05:05:33.355Z,0
2016-11-10T05:06:46.493Z,0
2016-11-10T05:08:00.086Z,0
2016-11-10T05:09:13.608Z,0
2016-11-10T05:10:26.703Z,0
2016-11-10T05:11:40.386Z,0
2016-11-10T05:12:53.707Z,0
2016-11-10T05:14:07.408Z,0
2016-11-10T05:15:20.485Z,0
2016-11-10T05:16:34.095Z,0
2016-11-10T05:17:47.624Z,0
2016-11-10T05:19:01.254Z,0
2016-11-10T05:20:14.905Z,0
2016-11-10T05:21:29.211Z,0
2016-11-10T05:22:43.186Z,0
2016-11-10T05:23:56.729Z,0
2016-11-10T05:25:09.790Z,0
2016-11-10T05:26:23.478Z,0
2016-11-10T05:27:37.073Z,0
2016-11-10T05:28:50.698Z,0
2016-11-10T05:30:04.391Z,0
2016-11-10T05:31:18.039Z,0
2016-11-10T05:32:31.714Z,0
2016-11-10T05:33:44.801Z,0
2016-11-10T05:34:58.703Z,0
2016-11-10T05:36:12.432Z,0
2016-11-10T05:37:26.131Z,0
2016-11-10T05:38:39.660Z,0
2016-11-10T05:39:53.007Z,0
2016-11-10T05:41:06.577Z,0
2016-11-10T05:42:20.284Z,0
2016-11-10T05:43:33.893Z,0
2016-11-10T05:44:47.172Z,0
2016-11-10T05:46:00.781Z,0
2016-11-10T05:47:13.921Z,0
2016-11-10T05:48:27.468Z,0
2016-11-10T05:49:41.066Z,0
2016-11-10T05:50:54.622Z,0
2016-11-10T05:52:08.194Z,0
2016-11-10T05:53:21.860Z,0
2016-11-10T05:54:35.419Z,0
2016-11-10T05:55:49.424Z,0
2016-11-10T05:57:02.975Z,0
2016-11-10T05:58:16.624Z,0
2016-11-10T05:59:30.281Z,0
2016-11-10T06:00:43.901Z,0
2016-11-10T06:01:57.580Z,0
2016-11-10T06:03:11.268Z,0
2016-11-10T06:04:24.916Z,0
2016-11-10T06:05:38.484Z,0
2016-11-10T06:06:52.118Z,0
2016-11-10T06:08:05.708Z,0
2016-11-10T06:09:19.456Z,0
2016-11-10T06:11:03.736Z,0
2016-11-10T06:12:17.435Z,0
2016-11-10T06:13:30.543Z,0
2016-11-10T06:14:44.154Z,0
2016-11-10T06:15:57.463Z,0
2016-11-10T06:17:11.117Z,0
2016-11-10T06:18:24.747Z,0
2016-11-10T06:19:38.340Z,0
2016-11-10T06:20:51.986Z,0
2016-11-10T06:22:05.588Z,0
2016-11-10T06:23:19.444Z,0
2016-11-10T06:24:33.119Z,0
2016-11-10T06:25:46.386Z,0
2016-11-10T06:27:00.083Z,0
2016-11-10T06:28:13.699Z,0
2016-11-10T06:29:27.354Z,0
2016-11-10T06:30:40.977Z,0
2016-11-10T06:31:54.602Z,0
2016-11-10T06:33:08.198Z,0
2016-11-10T06:34:21.864Z,0
2016-11-10T06:35:35.486Z,0
2016-11-10T06:37:20.189Z,0
2016-11-10T06:38:33.395Z,0
2016-11-10T06:39:46.987Z,0
2016-11-10T06:41:00.501Z,0
2016-11-10T06:42:14.133Z,0
2016-11-10T06:43:27.696Z,0
2016-11-10T06:44:41.295Z,0
2016-11-10T06:45:54.835Z,0
2016-11-10T06:47:39.546Z,0
2016-11-10T06:48:53.216Z,0
2016-11-10T06:50:06.811Z,0
2016-11-10T06:51:20.463Z,0
2016-11-10T06:52:34.084Z,0
2016-11-10T06:53:46.821Z,0
2016-11-10T06:55:00.401Z,0
2016-11-10T06:56:14.042Z,0
2016-11-10T06:57:27.658Z,0
2016-11-10T06:58:41.347Z,0
2016-11-10T06:59:55.019Z,0
2016-11-10T07:01:08.619Z,0
2016-11-10T07:02:22.601Z,0
2016-11-10T07:03:36.149Z,0
2016-11-10T07:04:49.726Z,0
2016-11-10T07:06:03.262Z,0
2016-11-10T07:07:16.837Z,0
2016-11-10T07:08:30.482Z,0
2016-11-10T07:09:44.103Z,0
2016-11-10T07:10:57.670Z,0
2016-11-10T07:12:11.425Z,0
2016-11-10T07:13:25.056Z,0
2016-11-10T07:14:38.719Z,0
2016-11-10T07:15:52.378Z,0
2016-11-10T07:17:05.928Z,0
2016-11-10T07:18:19.599Z,0
2016-11-10T07:19:33.268Z,0
2016-11-10T07:20:46.800Z,0
2016-11-10T07:22:00.144Z,0
2016-11-10T07:23:13.788Z,0
2016-11-10T07:24:27.407Z,0
2016-11-10T07:25:40.719Z,0
2016-11-10T07:26:54.321Z,0
2016-11-10T07:28:07.920Z,0
2016-11-10T07:29:21.440Z,0
2016-11-10T07:30:35.025Z,0
2016-11-10T07:31:48.402Z,0
2016-11-10T07:33:01.974Z,0
2016-11-10T07:34:15.587Z,0
2016-11-10T07:35:29.280Z,0
2016-11-10T07:37:02.142Z,0
2016-11-10T07:38:15.771Z,0
2016-11-10T07:39:28.956Z,0
2016-11-10T07:40:42.556Z,0
2016-11-10T07:41:56.197Z,0
2016-11-10T07:43:09.863Z,0
2016-11-10T07:44:23.485Z,0
2016-11-10T07:45:37.205Z,0
2016-11-10T07:46:50.800Z,0
2016-11-10T07:48:04.432Z,0
2016-11-10T07:49:17.943Z,0
2016-11-10T07:50:31.493Z,0
2016-11-10T07:51:45.104Z,0
2016-11-10T07:52:58.762Z,0
2016-11-10T07:54:12.329Z,0
2016-11-10T07:55:25.463Z,0
2016-11-10T07:56:39.058Z,0
2016-11-10T07:57:52.644Z,0
2016-11-10T07:59:06.276Z,0
2016-11-10T08:00:19.847Z,0
2016-11-10T08:01:33.427Z,0
2016-11-10T08:02:47.001Z,0
2016-11-10T08:04:00.614Z,0
2016-11-10T08:05:14.263Z,0
2016-11-10T08:06:27.796Z,0
2016-11-10T08:07:41.475Z,0
2016-11-10T08:08:54.654Z,0
2016-11-10T08:10:08.226Z,0
2016-11-10T08:11:21.836Z,0
2016-11-10T08:12:34.968Z,0
2016-11-10T08:13:48.645Z,0
2016-11-10T08:15:02.267Z,0
2016-11-10T08:16:15.963Z,0
2016-11-10T08:17:29.581Z,0
2016-11-10T08:18:42.717Z,0
2016-11-10T08:19:56.384Z,0
2016-11-10T08:21:10.003Z,0
2016-11-10T08:22:23.723Z,0
2016-11-10T08:23:37.310Z,0
2016-11-10T08:24:50.945Z,0
2016-11-10T08:26:04.660Z,0
2016-11-10T08:27:18.379Z,0
2016-11-10T08:28:31.988Z,0
2016-11-10T08:29:45.336Z,0
2016-11-10T08:30:58.488Z,0
2016-11-10T08:32:12.137Z,0
2016-11-10T08:33:25.898Z,0
2016-11-10T08:34:39.224Z,0
2016-11-10T08:35:52.891Z,0
2016-11-10T08:37:05.913Z,0
2016-11-10T08:38:19.689Z,0
2016-11-10T08:39:33.358Z,0
2016-11-10T08:40:47.015Z,0
2016-11-10T08:42:00.146Z,0
2016-11-10T08:43:13.737Z,5
2016-11-10T08:44:27.095Z,5
2016-11-10T08:46:11.881Z,5
2016-11-10T08:47:25.747Z,5
2016-11-10T08:48:39.370Z,5
2016-11-10T08:49:52.938Z,5
2016-11-10T08:51:06.620Z,5
2016-11-10T08:52:20.246Z,5
2016-11-10T08:53:33.598Z,5
2016-11-10T08:54:47.287Z,5
2016-11-10T08:56:00.879Z,5
2016-11-10T08:57:14.608Z,5
2016-11-10T08:58:28.247Z,5
2016-11-10T08:59:42.002Z,5
2016-11-10T09:00:55.746Z,5
2016-11-10T09:02:09.322Z,5
2016-11-10T09:03:22.989Z,5
2016-11-10T09:04:36.162Z,5
2016-11-10T09:05:49.891Z,5
2016-11-10T09:07:02.799Z,5
2016-11-10T09:08:16.437Z,5
2016-11-10T09:09:30.048Z,5
2016-11-10T09:10:43.655Z,5
2016-11-10T09:11:57.384Z,5
2016-11-10T09:13:11.042Z,5
2016-11-10T09:14:24.643Z,5
2016-11-10T09:15:38.359Z,5
2016-11-10T09:16:52.057Z,5
2016-11-10T09:18:05.749Z,5
2016-11-10T09:19:19.575Z,5
2016-11-10T09:20:33.235Z,5
2016-11-10T09:21:47.083Z,5
2016-11-10T09:23:00.731Z,5
2016-11-10T09:24:14.362Z,5
2016-11-10T09:25:27.821Z,5
2016-11-10T09:26:41.607Z,5
2016-11-10T09:27:55.303Z,5
2016-11-10T09:29:08.875Z,5
2016-11-10T09:30:22.687Z,5
2016-11-10T09:31:35.830Z,5
2016-11-10T09:32:49.586Z,10
2016-11-10T09:34:02.399Z,10
2016-11-10T09:35:16.435Z,10
2016-11-10T09:36:30.051Z,10
2016-11-10T09:37:43.674Z,10
2016-11-10T09:38:57.390Z,10
2016-11-10T09:40:11.108Z,10
2016-11-10T09:41:24.748Z,10
2016-11-10T09:42:38.656Z,10
2016-11-10T09:43:52.639Z,10
2016-11-10T09:45:06.181Z,10
2016-11-10T09:46:20.230Z,10
2016-11-10T09:47:33.918Z,10
2016-11-10T09:48:46.691Z,10
2016-11-10T09:50:00.496Z,10
2016-11-10T09:51:14.159Z,10
2016-11-10T09:52:27.740Z,10
2016-11-10T09:53:40.551Z,10
2016-11-10T09:54:54.200Z,10
2016-11-10T09:56:07.870Z,10
2016-11-10T09:57:21.536Z,10
2016-11-10T09:58:35.108Z,10
2016-11-10T09:59:48.741Z,10
2016-11-10T10:01:02.565Z,10
2016-11-10T10:02:16.495Z,10
2016-11-10T10:03:30.131Z,10
2016-11-10T10:04:43.747Z,10
2016-11-10T10:05:57.369Z,10
2016-11-10T10:07:11.024Z,10
2016-11-10T10:08:24.776Z,10
2016-11-10T10:09:38.434Z,10
2016-11-10T10:10:51.491Z,10
2016-11-10T10:12:05.119Z,10
2016-11-10T10:13:18.765Z,10
2016-11-10T10:14:32.399Z,10
2016-11-10T10:15:46.039Z,10
2016-11-10T10:16:59.711Z,10
2016-11-10T10:18:13.357Z,10
2016-11-10T10:19:25.952Z,10
2016-11-10T10:20:39.566Z,10
2016-11-10T10:21:52.222Z,10
2016-11-10T10:23:05.896Z,10
2016-11-10T10:24:19.152Z,10
2016-11-10T10:25:32.549Z,15
2016-11-10T10:26:45.653Z,15
2016-11-10T10:28:29.924Z,15
2016-11-10T10:29:43.041Z,15
2016-11-10T10:30:56.671Z,15
2016-11-10T10:32:10.348Z,15
2016-11-10T10:33:24.023Z,15
2016-11-10T10:34:37.798Z,15
2016-11-10T10:35:51.434Z,15
2016-11-10T10:37:04.496Z,15
2016-11-10T10:38:18.155Z,15
2016-11-10T10:39:31.874Z,15
2016-11-10T10:40:45.503Z,15
2016-11-10T10:41:59.113Z,15
2016-11-10T10:43:12.790Z,15
2016-11-10T10:44:26.430Z,15
2016-11-10T10:45:40.080Z,15
2016-11-10T10:46:53.726Z,15
2016-11-10T10:48:07.367Z,15
2016-11-10T10:49:21.038Z,15
2016-11-10T10:50:34.695Z,15
2016-11-10T10:51:48.261Z,15
2016-11-10T10:53:01.981Z,15
2016-11-10T10:54:15.711Z,15
2016-11-10T10:55:29.259Z,20
2016-11-10T10:56:42.361Z,20
2016-11-10T10:57:56.092Z,20
2016-11-10T10:59:09.724Z,20
2016-11-10T11:00:23.336Z,20
2016-11-10T11:01:36.917Z,20
2016-11-10T11:02:50.661Z,20
2016-11-10T11:04:04.344Z,20
2016-11-10T11:05:17.850Z,20
2016-11-10T11:06:31.021Z,20
2016-11-10T11:07:44.764Z,20
2016-11-10T11:08:58.400Z,20
2016-11-10T11:10:12.068Z,20
2016-11-10T11:11:25.862Z,20
2016-11-10T11:12:39.446Z,20
2016-11-10T11:13:52.781Z,20
2016-11-10T11:15:06.374Z,20
2016-11-10T11:16:19.920Z,20
2016-11-10T11:17:32.983Z,20
2016-11-10T11:18:46.634Z,20
2016-11-10T11:20:00.281Z,20
2016-11-10T11:21:13.369Z,20
2016-11-10T11:22:27.108Z,20
2016-11-10T11:23:40.780Z,20
2016-11-10T11:24:54.445Z,20
2016-11-10T11:26:08.051Z,20
2016-11-10T11:27:21.691Z,20
2016-11-10T11:28:35.321Z,20
2016-11-10T11:29:49.011Z,20
2016-11-10T11:31:02.653Z,20
2016-11-10T11:32:16.517Z,20
2016-11-10T11:33:29.890Z,25
2016-11-10T11:34:43.512Z,25
2016-11-10T11:36:28.186Z,25
2016-11-10T11:37:41.833Z,25
2016-11-10T11:38:55.455Z,25
2016-11-10T11:40:09.153Z,25
2016-11-10T11:41:22.794Z,25
2016-11-10T11:42:36.449Z,25
2016-11-10T11:43:50.093Z,25
2016-11-10T11:45:34.861Z,25
2016-11-10T11:46:48.525Z,25
2016-11-10T11:48:02.246Z,25
2016-11-10T11:49:15.884Z,25
2016-11-10T11:50:29.549Z,25
2016-11-10T11:51:43.424Z,25
2016-11-10T11:52:57.102Z,25
2016-11-10T11:54:10.791Z,25
2016-11-10T11:55:24.492Z,25
2016-11-10T11:56:38.129Z,25
2016-11-10T11:57:51.790Z,25
2016-11-10T11:59:05.332Z,25
2016-11-10T12:00:18.938Z,25
2016-11-10T12:01:32.574Z,25
2016-11-10T12:02:46.492Z,25
2016-11-10T12:04:00.135Z,25
2016-11-10T12:05:13.818Z,25
2016-11-10T12:06:27.523Z,25
2016-11-10T12:07:41.153Z,30
2016-11-10T12:08:54.771Z,30
2016-11-10T12:10:08.449Z,25
2016-11-10T12:11:21.961Z,25
2016-11-10T12:12:35.540Z,30
2016-11-10T12:13:49.221Z,30
2016-11-10T12:15:02.807Z,30
2016-11-10T12:16:16.588Z,30
2016-11-10T12:17:30.226Z,30
2016-11-10T12:18:43.912Z,30
2016-11-10T12:19:57.564Z,30
2016-11-10T12:21:11.184Z,30
2016-11-10T12:22:24.299Z,30
2016-11-10T12:23:38.021Z,30
2016-11-10T12:24:51.670Z,30
2016-11-10T12:26:05.351Z,30
2016-11-10T12:27:18.979Z,35
2016-11-10T12:28:32.637Z,35
2016-11-10T12:29:46.508Z,35
2016-11-10T12:31:00.103Z,35
2016-11-10T12:32:13.781Z,35
2016-11-10T12:33:27.674Z,35
2016-11-10T12:34:41.322Z,35
2016-11-10T12:35:54.944Z,35
2016-11-10T12:37:08.595Z,35
2016-11-10T12:38:22.261Z,40
2016-11-10T12:39:35.561Z,40
2016-11-10T12:40:49.238Z,40
2016-11-10T12:42:02.859Z,45
2016-11-10T12:43:16.582Z,45
2016-11-10T12:45:00.251Z,40
2016-11-10T12:46:13.866Z,50
2016-11-10T12:47:27.525Z,60
2016-11-10T12:48:41.162Z,60
2016-11-10T12:49:54.911Z,60
2016-11-10T12:51:08.491Z,70
2016-11-10T12:52:22.100Z,75
2016-11-10T12:55:20.533Z,90
2016-11-10T12:56:33.848Z,90
2016-11-10T12:57:47.447Z,100
2016-11-10T12:59:01.057Z,110
2016-11-10T13:00:14.738Z,120
2016-11-10T13:01:28.382Z,125
2016-11-10T13:02:42.075Z,135
2016-11-10T13:03:56.031Z,145
2016-11-10T13:05:09.119Z,150
2016-11-10T13:06:22.540Z,165
2016-11-10T13:07:36.173Z,165
2016-11-10T13:08:49.833Z,175
2016-11-10T13:10:03.439Z,185
2016-11-10T13:11:17.088Z,180
2016-11-10T13:12:30.661Z,175
2016-11-10T13:13:44.306Z,175
2016-11-10T13:14:57.497Z,180
2016-11-10T13:16:11.206Z,180
2016-11-10T13:17:24.893Z,185
2016-11-10T13:18:38.628Z,185
2016-11-10T13:19:52.271Z,190
2016-11-10T13:21:06.026Z,185
2016-11-10T13:22:19.813Z,185
2016-11-10T13:23:33.980Z,175
2016-11-10T13:24:46.651Z,190
2016-11-10T13:26:00.289Z,200
2016-11-10T13:27:13.914Z,200
2016-11-10T13:28:27.519Z,205
2016-11-10T13:29:41.168Z,215
2016-11-10T13:30:54.886Z,215
2016-11-10T13:32:08.532Z,205
2016-11-10T13:33:22.228Z,205
2016-11-10T13:34:35.865Z,210
2016-11-10T13:35:49.266Z,210
2016-11-10T13:37:02.437Z,210
2016-11-10T13:38:15.537Z,215
2016-11-10T13:39:29.215Z,220
2016-11-10T13:40:42.865Z,220
2016-11-10T13:41:56.020Z,225
2016-11-10T13:43:09.442Z,230
2016-11-10T13:44:23.136Z,240
2016-11-10T13:45:36.542Z,235
2016-11-10T13:46:50.151Z,230
2016-11-10T13:48:03.842Z,240
2016-11-10T13:49:17.754Z,235
2016-11-10T13:50:31.407Z,240
2016-11-10T13:51:45.117Z,245
2016-11-10T13:52:58.303Z,255
2016-11-10T13:54:12.000Z,265
2016-11-10T13:55:25.835Z,275
2016-11-10T13:56:39.468Z,185
2016-11-10T13:57:52.528Z,250
2016-11-10T13:59:06.234Z,270
2016-11-10T14:00:19.905Z,275
2016-11-10T14:01:33.580Z,275
2016-11-10T14:02:47.221Z,270
2016-11-10T14:04:00.811Z,280
2016-11-10T14:05:14.496Z,315
2016-11-10T14:06:27.921Z,300
2016-11-10T14:07:41.518Z,155
2016-11-10T14:08:55.172Z,305
2016-11-10T14:10:08.764Z,305
2016-11-10T14:11:22.420Z,305
2016-11-10T14:12:36.093Z,150
2016-11-10T14:13:49.828Z,80
2016-11-10T14:15:03.479Z,275
2016-11-10T14:16:17.113Z,190
2016-11-10T14:17:30.227Z,340
2016-11-10T14:18:43.818Z,320
2016-11-10T14:19:57.507Z,290
2016-11-10T14:21:11.256Z,335
2016-11-10T14:22:24.851Z,150
2016-11-10T14:23:38.460Z,75
2016-11-10T14:24:52.145Z,130
2016-11-10T14:26:36.932Z,105
2016-11-10T14:27:50.614Z,80
2016-11-10T14:29:03.908Z,160
2016-11-10T14:30:17.497Z,360
2016-11-10T14:31:31.177Z,185
2016-11-10T14:32:44.943Z,350
2016-11-10T14:33:58.629Z,375
2016-11-10T14:35:12.330Z,145
2016-11-10T14:36:26.128Z,105
2016-11-10T14:37:39.777Z,185
2016-11-10T14:38:53.286Z,240
2016-11-10T14:40:06.911Z,380
2016-11-10T14:41:20.338Z,225
2016-11-10T14:42:33.997Z,375
2016-11-10T14:43:47.619Z,345
2016-11-10T14:45:01.275Z,335
2016-11-10T14:46:14.827Z,370
2016-11-10T14:47:28.428Z,95
2016-11-10T14:48:42.079Z,125
2016-11-10T14:49:56.080Z,170
2016-11-10T14:51:09.693Z,85
2016-11-10T14:52:23.319Z,255
2016-11-10T14:53:36.883Z,90
2016-11-10T14:54:50.630Z,410
2016-11-10T14:56:03.739Z,310
2016-11-10T14:57:17.418Z,150
2016-11-10T14:58:31.016Z,205
2016-11-10T14:59:44.609Z,365
2016-11-10T15:00:58.336Z,210
2016-11-10T15:02:11.451Z,400
2016-11-10T15:03:24.834Z,315
2016-11-10T15:04:38.146Z,255
2016-11-10T15:05:51.759Z,415
2016-11-10T15:07:04.809Z,415
2016-11-10T15:08:17.978Z,410
2016-11-10T15:09:31.622Z,340
2016-11-10T15:10:45.281Z,395
2016-11-10T15:11:59.050Z,215
2016-11-10T15:13:12.710Z,145
2016-11-10T15:14:26.399Z,130
2016-11-10T15:15:39.477Z,420
2016-11-10T15:16:53.046Z,405
2016-11-10T15:18:06.762Z,400
2016-11-10T15:19:20.364Z,400
2016-11-10T15:20:33.980Z,445
2016-11-10T15:21:47.693Z,410
2016-11-10T15:23:01.362Z,420
2016-11-10T15:24:15.021Z,430
2016-11-10T15:25:28.348Z,430
2016-11-10T15:26:42.045Z,415
2016-11-10T15:27:55.912Z,405
2016-11-10T15:29:09.827Z,435
2016-11-10T15:30:23.535Z,445
2016-11-10T15:31:37.173Z,165
2016-11-10T15:32:50.913Z,95
2016-11-10T15:34:04.778Z,145
2016-11-10T15:35:18.327Z,225
2016-11-10T15:36:32.008Z,140
2016-11-10T15:37:45.716Z,300
2016-11-10T15:38:59.403Z,450
2016-11-10T15:40:13.143Z,445
2016-11-10T15:41:26.801Z,55
2016-11-10T15:43:52.807Z,85
2016-11-10T15:45:37.014Z,125
2016-11-10T15:46:50.701Z,90
2016-11-10T15:48:03.779Z,105
2016-11-10T15:49:17.507Z,360
2016-11-10T15:50:31.113Z,70
2016-11-10T15:51:44.716Z,65
2016-11-10T15:52:58.394Z,445
2016-11-10T15:54:12.033Z,380
2016-11-10T15:55:26.001Z,450
2016-11-10T15:56:39.096Z,325
2016-11-10T15:57:52.934Z,445
2016-11-10T15:59:06.611Z,435
2016-11-10T16:00:20.042Z,460
2016-11-10T16:01:33.741Z,60
2016-11-10T16:02:47.327Z,60
2016-11-10T16:04:01.062Z,70
2016-11-10T16:05:14.827Z,430
2016-11-10T16:06:28.554Z,405
2016-11-10T16:07:41.981Z,425
2016-11-10T16:08:55.923Z,435
2016-11-10T16:10:09.337Z,450
2016-11-10T16:11:22.918Z,450
2016-11-10T16:12:36.548Z,455
2016-11-10T16:13:50.191Z,445
2016-11-10T16:15:03.886Z,445
2016-11-10T16:16:17.275Z,445
2016-11-10T16:17:30.935Z,430
2016-11-10T16:18:44.567Z,425
2016-11-10T16:19:58.233Z,120
2016-11-10T16:21:11.618Z,430
2016-11-10T16:22:25.295Z,65
2016-11-10T16:23:39.021Z,95
2016-11-10T16:24:52.897Z,420
2016-11-10T16:26:06.591Z,415
2016-11-10T16:27:20.271Z,395
2016-11-10T16:28:33.378Z,385
2016-11-10T16:29:47.060Z,385
2016-11-10T16:31:00.792Z,395
2016-11-10T16:32:14.464Z,395
2016-11-10T16:33:28.055Z,390
2016-11-10T16:35:12.846Z,405
2016-11-10T16:36:26.287Z,80
2016-11-10T16:37:39.810Z,415
2016-11-10T16:38:53.514Z,225
2016-11-10T16:40:07.117Z,415
2016-11-10T16:41:20.704Z,400
2016-11-10T16:42:34.373Z,385
2016-11-10T16:43:48.073Z,385
2016-11-10T16:45:01.690Z,385
2016-11-10T16:46:15.335Z,380
2016-11-10T16:47:29.187Z,340
2016-11-10T16:48:42.867Z,400
2016-11-10T16:49:56.879Z,400
2016-11-10T16:51:10.589Z,340
2016-11-10T16:52:24.266Z,110
2016-11-10T16:53:37.908Z,70
2016-11-10T16:54:51.634Z,395
2016-11-10T16:56:05.203Z,355
2016-11-10T16:57:49.917Z,70
2016-11-10T16:59:03.600Z,365
2016-11-10T17:00:17.220Z,360
2016-11-10T17:01:30.908Z,360
2016-11-10T17:02:44.691Z,70
2016-11-10T17:03:58.248Z,65
2016-11-10T17:05:11.877Z,375
2016-11-10T17:06:25.584Z,365
2016-11-10T17:07:38.674Z,315
2016-11-10T17:08:52.881Z,255
2016-11-10T17:10:06.712Z,40
2016-11-10T17:11:20.343Z,55
2016-11-10T17:12:33.875Z,105
2016-11-10T17:13:47.441Z,360
2016-11-10T17:15:01.103Z,370
2016-11-10T17:16:14.699Z,370
2016-11-10T17:17:28.348Z,95
2016-11-10T17:18:41.974Z,80
2016-11-10T17:19:55.562Z,65
2016-11-10T17:21:09.246Z,195
2016-11-10T17:22:23.057Z,50
2016-11-10T17:23:36.669Z,355
2016-11-10T17:24:49.869Z,345
2016-11-10T17:26:03.382Z,120
2016-11-10T17:27:16.971Z,60
2016-11-10T17:28:30.645Z,55
2016-11-10T17:29:44.266Z,60
2016-11-10T17:30:56.859Z,85
2016-11-10T17:32:10.545Z,340
2016-11-10T17:33:24.266Z,55
2016-11-10T17:34:37.883Z,45
2016-11-10T17:35:51.433Z,50
2016-11-10T17:37:05.101Z,60
2016-11-10T17:38:18.747Z,355
2016-11-10T17:39:32.391Z,350
2016-11-10T17:40:46.076Z,340
2016-11-10T17:41:59.771Z,220
2016-11-10T17:43:13.652Z,110
2016-11-10T17:44:27.243Z,80
2016-11-10T17:45:40.352Z,180
2016-11-10T17:46:53.931Z,310
2016-11-10T17:48:06.450Z,310
2016-11-10T17:49:20.012Z,305
2016-11-10T17:50:33.604Z,310
2016-11-10T17:51:47.259Z,300
2016-11-10T17:53:00.953Z,290
2016-11-10T17:54:14.333Z,290